sensor_id;sensor_type;location;lat;lon;timestamp;P1;durP1;ratioP1;P2;durP2;ratioP2
27003;SDS011;14546;47.590;19.022;2023-02-28T00:00:06;39.10;;;18.65;;
27003;SDS011;14546;47.590;19.022;2023-02-28T00:02:39;37.00;;;17.67;;
27003;SDS011;14546;47.590;19.022;2023-02-28T00:05:05;33.47;;;18.65;;
27003;SDS011;14546;47.590;19.022;2023-02-28T00:07:32;37.60;;;18.75;;
27003;SDS011;14546;47.590;19.022;2023-02-28T00:09:58;37.65;;;19.08;;
27003;SDS011;14546;47.590;19.022;2023-02-28T00:12:27;43.67;;;20.38;;
27003;SDS011;14546;47.590;19.022;2023-02-28T00:14:53;42.33;;;20.50;;
27003;SDS011;14546;47.590;19.022;2023-02-28T00:17:19;46.85;;;20.08;;
27003;SDS011;14546;47.590;19.022;2023-02-28T00:19:48;42.58;;;20.30;;
27003;SDS011;14546;47.590;19.022;2023-02-28T00:22:18;37.42;;;20.50;;
27003;SDS011;14546;47.590;19.022;2023-02-28T00:24:45;41.00;;;20.85;;
27003;SDS011;14546;47.590;19.022;2023-02-28T00:27:12;42.03;;;20.05;;
27003;SDS011;14546;47.590;19.022;2023-02-28T00:29:38;45.33;;;20.40;;
27003;SDS011;14546;47.590;19.022;2023-02-28T00:32:04;40.17;;;19.83;;
27003;SDS011;14546;47.590;19.022;2023-02-28T00:34:30;40.20;;;18.95;;
27003;SDS011;14546;47.590;19.022;2023-02-28T00:37:02;40.65;;;18.85;;
27003;SDS011;14546;47.590;19.022;2023-02-28T00:39:28;45.95;;;19.92;;
27003;SDS011;14546;47.590;19.022;2023-02-28T00:41:54;45.40;;;20.17;;
27003;SDS011;14546;47.590;19.022;2023-02-28T00:44:20;36.97;;;18.27;;
27003;SDS011;14546;47.590;19.022;2023-02-28T00:46:46;36.90;;;17.38;;
27003;SDS011;14546;47.590;19.022;2023-02-28T00:49:13;38.55;;;19.10;;
27003;SDS011;14546;47.590;19.022;2023-02-28T00:51:39;34.63;;;17.70;;
27003;SDS011;14546;47.590;19.022;2023-02-28T00:54:05;38.70;;;18.23;;
27003;SDS011;14546;47.590;19.022;2023-02-28T00:56:31;30.35;;;17.20;;
27003;SDS011;14546;47.590;19.022;2023-02-28T00:58:57;33.53;;;17.70;;
27003;SDS011;14546;47.590;19.022;2023-02-28T01:01:26;34.97;;;18.00;;
27003;SDS011;14546;47.590;19.022;2023-02-28T01:03:52;31.58;;;16.58;;
27003;SDS011;14546;47.590;19.022;2023-02-28T01:06:19;33.75;;;17.05;;
27003;SDS011;14546;47.590;19.022;2023-02-28T01:08:48;34.00;;;16.92;;
27003;SDS011;14546;47.590;19.022;2023-02-28T01:11:15;33.83;;;16.60;;
27003;SDS011;14546;47.590;19.022;2023-02-28T01:13:41;29.60;;;15.55;;
27003;SDS011;14546;47.590;19.022;2023-02-28T01:16:08;31.05;;;15.85;;
27003;SDS011;14546;47.590;19.022;2023-02-28T01:18:34;34.25;;;16.63;;
27003;SDS011;14546;47.590;19.022;2023-02-28T01:21:04;34.15;;;16.13;;
27003;SDS011;14546;47.590;19.022;2023-02-28T01:23:30;27.50;;;15.52;;
27003;SDS011;14546;47.590;19.022;2023-02-28T01:25:57;30.20;;;15.18;;
27003;SDS011;14546;47.590;19.022;2023-02-28T01:28:23;27.67;;;14.05;;
27003;SDS011;14546;47.590;19.022;2023-02-28T01:30:49;30.75;;;14.52;;
27003;SDS011;14546;47.590;19.022;2023-02-28T01:33:15;25.42;;;13.50;;
27003;SDS011;14546;47.590;19.022;2023-02-28T01:35:41;22.27;;;12.55;;
27003;SDS011;14546;47.590;19.022;2023-02-28T01:38:07;22.98;;;11.65;;
27003;SDS011;14546;47.590;19.022;2023-02-28T01:40:33;20.98;;;10.68;;
27003;SDS011;14546;47.590;19.022;2023-02-28T01:43:00;21.40;;;12.05;;
27003;SDS011;14546;47.590;19.022;2023-02-28T01:45:30;25.20;;;12.02;;
27003;SDS011;14546;47.590;19.022;2023-02-28T01:48:00;31.67;;;14.50;;
27003;SDS011;14546;47.590;19.022;2023-02-28T01:50:28;30.70;;;15.85;;
27003;SDS011;14546;47.590;19.022;2023-02-28T01:52:56;30.38;;;16.15;;
27003;SDS011;14546;47.590;19.022;2023-02-28T01:55:23;33.75;;;16.95;;
27003;SDS011;14546;47.590;19.022;2023-02-28T01:57:54;31.85;;;17.50;;
27003;SDS011;14546;47.590;19.022;2023-02-28T02:00:21;36.22;;;18.88;;
27003;SDS011;14546;47.590;19.022;2023-02-28T02:02:52;36.28;;;18.63;;
27003;SDS011;14546;47.590;19.022;2023-02-28T02:05:20;41.38;;;19.58;;
27003;SDS011;14546;47.590;19.022;2023-02-28T02:07:48;34.92;;;17.98;;
27003;SDS011;14546;47.590;19.022;2023-02-28T02:10:24;35.42;;;18.35;;
27003;SDS011;14546;47.590;19.022;2023-02-28T02:17:57;30.23;;;17.02;;
27003;SDS011;14546;47.590;19.022;2023-02-28T02:20:42;29.63;;;15.38;;
27003;SDS011;14546;47.590;19.022;2023-02-28T02:31:27;15.07;;;8.75;;
27003;SDS011;14546;47.590;19.022;2023-02-28T02:36:35;14.45;;;8.18;;
27003;SDS011;14546;47.590;19.022;2023-02-28T02:41:46;16.25;;;7.97;;
27003;SDS011;14546;47.590;19.022;2023-02-28T02:47:03;17.55;;;7.40;;
27003;SDS011;14546;47.590;19.022;2023-02-28T02:49:31;14.23;;;7.88;;
27003;SDS011;14546;47.590;19.022;2023-02-28T02:52:00;15.43;;;8.07;;
27003;SDS011;14546;47.590;19.022;2023-02-28T02:54:28;16.00;;;8.23;;
27003;SDS011;14546;47.590;19.022;2023-02-28T02:56:57;15.45;;;7.07;;
27003;SDS011;14546;47.590;19.022;2023-02-28T02:59:24;16.80;;;8.27;;
27003;SDS011;14546;47.590;19.022;2023-02-28T03:01:52;15.50;;;7.32;;
27003;SDS011;14546;47.590;19.022;2023-02-28T03:04:20;15.93;;;7.45;;
27003;SDS011;14546;47.590;19.022;2023-02-28T03:06:46;13.65;;;7.30;;
27003;SDS011;14546;47.590;19.022;2023-02-28T03:09:12;12.45;;;6.90;;
27003;SDS011;14546;47.590;19.022;2023-02-28T03:11:39;11.57;;;7.25;;
27003;SDS011;14546;47.590;19.022;2023-02-28T03:19:59;13.25;;;6.70;;
27003;SDS011;14546;47.590;19.022;2023-02-28T03:24:52;13.40;;;7.57;;
27003;SDS011;14546;47.590;19.022;2023-02-28T03:32:33;14.32;;;6.93;;
27003;SDS011;14546;47.590;19.022;2023-02-28T03:37:29;12.65;;;7.25;;
27003;SDS011;14546;47.590;19.022;2023-02-28T03:40:00;14.30;;;7.20;;
27003;SDS011;14546;47.590;19.022;2023-02-28T03:42:29;13.27;;;7.30;;
27003;SDS011;14546;47.590;19.022;2023-02-28T03:44:58;13.73;;;6.43;;
27003;SDS011;14546;47.590;19.022;2023-02-28T03:47:29;13.07;;;6.72;;
27003;SDS011;14546;47.590;19.022;2023-02-28T03:52:25;11.93;;;6.85;;
27003;SDS011;14546;47.590;19.022;2023-02-28T03:54:54;16.13;;;7.88;;
27003;SDS011;14546;47.590;19.022;2023-02-28T03:57:41;15.38;;;8.25;;
27003;SDS011;14546;47.590;19.022;2023-02-28T04:00:13;16.13;;;7.35;;
27003;SDS011;14546;47.590;19.022;2023-02-28T04:02:40;15.30;;;7.70;;
27003;SDS011;14546;47.590;19.022;2023-02-28T04:05:09;12.88;;;7.03;;
27003;SDS011;14546;47.590;19.022;2023-02-28T04:07:35;13.35;;;7.65;;
27003;SDS011;14546;47.590;19.022;2023-02-28T04:10:02;14.10;;;7.55;;
27003;SDS011;14546;47.590;19.022;2023-02-28T04:12:28;16.27;;;7.88;;
27003;SDS011;14546;47.590;19.022;2023-02-28T04:14:54;13.30;;;7.10;;
27003;SDS011;14546;47.590;19.022;2023-02-28T04:17:20;15.07;;;7.40;;
27003;SDS011;14546;47.590;19.022;2023-02-28T04:19:46;13.90;;;7.95;;
27003;SDS011;14546;47.590;19.022;2023-02-28T04:22:13;16.35;;;7.65;;
27003;SDS011;14546;47.590;19.022;2023-02-28T04:24:39;15.40;;;7.80;;
27003;SDS011;14546;47.590;19.022;2023-02-28T04:27:08;22.45;;;8.57;;
27003;SDS011;14546;47.590;19.022;2023-02-28T04:29:34;18.25;;;8.40;;
27003;SDS011;14546;47.590;19.022;2023-02-28T04:32:01;15.48;;;8.50;;
27003;SDS011;14546;47.590;19.022;2023-02-28T04:34:28;18.02;;;8.30;;
27003;SDS011;14546;47.590;19.022;2023-02-28T04:36:54;14.10;;;7.97;;
27003;SDS011;14546;47.590;19.022;2023-02-28T04:39:21;15.25;;;7.88;;
27003;SDS011;14546;47.590;19.022;2023-02-28T04:41:50;17.10;;;8.02;;
27003;SDS011;14546;47.590;19.022;2023-02-28T04:44:16;13.52;;;7.80;;
27003;SDS011;14546;47.590;19.022;2023-02-28T04:46:43;16.40;;;7.88;;
27003;SDS011;14546;47.590;19.022;2023-02-28T04:49:11;14.15;;;7.65;;
27003;SDS011;14546;47.590;19.022;2023-02-28T04:51:37;13.43;;;7.80;;
27003;SDS011;14546;47.590;19.022;2023-02-28T04:54:03;16.15;;;8.20;;
27003;SDS011;14546;47.590;19.022;2023-02-28T04:56:29;15.02;;;7.88;;
27003;SDS011;14546;47.590;19.022;2023-02-28T04:58:55;15.23;;;7.88;;
27003;SDS011;14546;47.590;19.022;2023-02-28T05:01:28;18.38;;;8.48;;
27003;SDS011;14546;47.590;19.022;2023-02-28T05:06:21;14.00;;;7.55;;
27003;SDS011;14546;47.590;19.022;2023-02-28T05:08:48;17.10;;;7.95;;
27003;SDS011;14546;47.590;19.022;2023-02-28T05:11:19;16.92;;;7.30;;
27003;SDS011;14546;47.590;19.022;2023-02-28T05:13:45;14.88;;;8.15;;
27003;SDS011;14546;47.590;19.022;2023-02-28T05:16:11;13.63;;;7.88;;
27003;SDS011;14546;47.590;19.022;2023-02-28T05:18:38;14.55;;;7.38;;
27003;SDS011;14546;47.590;19.022;2023-02-28T05:21:04;17.10;;;8.48;;
27003;SDS011;14546;47.590;19.022;2023-02-28T05:23:31;16.90;;;8.85;;
27003;SDS011;14546;47.590;19.022;2023-02-28T05:25:57;17.13;;;8.48;;
27003;SDS011;14546;47.590;19.022;2023-02-28T05:28:23;17.95;;;8.15;;
27003;SDS011;14546;47.590;19.022;2023-02-28T05:30:49;18.80;;;8.35;;
27003;SDS011;14546;47.590;19.022;2023-02-28T05:33:15;17.95;;;8.75;;
27003;SDS011;14546;47.590;19.022;2023-02-28T05:35:41;16.02;;;8.23;;
27003;SDS011;14546;47.590;19.022;2023-02-28T05:38:10;14.10;;;7.22;;
27003;SDS011;14546;47.590;19.022;2023-02-28T05:40:38;16.02;;;7.53;;
27003;SDS011;14546;47.590;19.022;2023-02-28T05:43:05;16.58;;;7.18;;
27003;SDS011;14546;47.590;19.022;2023-02-28T05:45:31;17.08;;;8.73;;
27003;SDS011;14546;47.590;19.022;2023-02-28T05:47:57;14.75;;;7.85;;
27003;SDS011;14546;47.590;19.022;2023-02-28T05:50:23;14.00;;;8.25;;
27003;SDS011;14546;47.590;19.022;2023-02-28T05:52:50;14.15;;;7.90;;
27003;SDS011;14546;47.590;19.022;2023-02-28T05:55:16;18.10;;;7.82;;
27003;SDS011;14546;47.590;19.022;2023-02-28T05:57:42;17.42;;;8.27;;
27003;SDS011;14546;47.590;19.022;2023-02-28T06:00:09;14.63;;;7.93;;
27003;SDS011;14546;47.590;19.022;2023-02-28T06:02:35;19.58;;;7.95;;
27003;SDS011;14546;47.590;19.022;2023-02-28T06:05:01;15.10;;;8.13;;
27003;SDS011;14546;47.590;19.022;2023-02-28T06:07:27;15.70;;;8.57;;
27003;SDS011;14546;47.590;19.022;2023-02-28T06:09:53;22.83;;;8.90;;
27003;SDS011;14546;47.590;19.022;2023-02-28T06:12:19;18.88;;;7.95;;
27003;SDS011;14546;47.590;19.022;2023-02-28T06:14:45;14.40;;;8.45;;
27003;SDS011;14546;47.590;19.022;2023-02-28T06:17:11;14.77;;;8.10;;
27003;SDS011;14546;47.590;19.022;2023-02-28T06:19:38;18.85;;;7.43;;
27003;SDS011;14546;47.590;19.022;2023-02-28T06:22:06;20.10;;;7.68;;
27003;SDS011;14546;47.590;19.022;2023-02-28T06:24:32;19.85;;;7.90;;
27003;SDS011;14546;47.590;19.022;2023-02-28T06:26:58;18.10;;;8.27;;
27003;SDS011;14546;47.590;19.022;2023-02-28T06:29:29;19.45;;;8.30;;
27003;SDS011;14546;47.590;19.022;2023-02-28T06:31:58;17.95;;;8.38;;
27003;SDS011;14546;47.590;19.022;2023-02-28T06:34:24;19.92;;;8.25;;
27003;SDS011;14546;47.590;19.022;2023-02-28T06:36:51;16.85;;;8.45;;
27003;SDS011;14546;47.590;19.022;2023-02-28T06:39:17;24.52;;;7.90;;
27003;SDS011;14546;47.590;19.022;2023-02-28T06:41:44;12.55;;;7.20;;
27003;SDS011;14546;47.590;19.022;2023-02-28T06:44:13;13.55;;;7.80;;
27003;SDS011;14546;47.590;19.022;2023-02-28T06:46:40;12.55;;;6.72;;
27003;SDS011;14546;47.590;19.022;2023-02-28T06:49:07;14.98;;;7.32;;
27003;SDS011;14546;47.590;19.022;2023-02-28T06:51:37;10.98;;;6.97;;
27003;SDS011;14546;47.590;19.022;2023-02-28T06:54:04;14.68;;;7.57;;
27003;SDS011;14546;47.590;19.022;2023-02-28T06:56:30;15.43;;;7.40;;
27003;SDS011;14546;47.590;19.022;2023-02-28T06:58:56;15.80;;;7.30;;
27003;SDS011;14546;47.590;19.022;2023-02-28T07:01:22;13.70;;;6.97;;
27003;SDS011;14546;47.590;19.022;2023-02-28T07:03:49;14.05;;;7.93;;
27003;SDS011;14546;47.590;19.022;2023-02-28T07:06:17;19.23;;;8.43;;
27003;SDS011;14546;47.590;19.022;2023-02-28T07:08:43;17.48;;;8.00;;
27003;SDS011;14546;47.590;19.022;2023-02-28T07:11:10;17.67;;;7.03;;
27003;SDS011;14546;47.590;19.022;2023-02-28T07:13:36;21.23;;;7.90;;
27003;SDS011;14546;47.590;19.022;2023-02-28T07:16:03;14.23;;;6.68;;
27003;SDS011;14546;47.590;19.022;2023-02-28T07:18:30;15.75;;;7.30;;
27003;SDS011;14546;47.590;19.022;2023-02-28T07:20:56;16.35;;;7.05;;
27003;SDS011;14546;47.590;19.022;2023-02-28T07:23:23;14.20;;;7.80;;
27003;SDS011;14546;47.590;19.022;2023-02-28T07:25:49;13.48;;;7.22;;
27003;SDS011;14546;47.590;19.022;2023-02-28T07:28:16;14.20;;;7.03;;
27003;SDS011;14546;47.590;19.022;2023-02-28T07:30:42;14.77;;;7.22;;
27003;SDS011;14546;47.590;19.022;2023-02-28T07:33:09;12.43;;;6.68;;
27003;SDS011;14546;47.590;19.022;2023-02-28T07:35:35;11.63;;;6.40;;
27003;SDS011;14546;47.590;19.022;2023-02-28T07:38:02;12.80;;;7.15;;
27003;SDS011;14546;47.590;19.022;2023-02-28T07:40:28;15.50;;;6.97;;
27003;SDS011;14546;47.590;19.022;2023-02-28T07:42:54;13.25;;;7.35;;
27003;SDS011;14546;47.590;19.022;2023-02-28T07:45:20;13.68;;;7.30;;
27003;SDS011;14546;47.590;19.022;2023-02-28T07:47:46;12.93;;;6.93;;
27003;SDS011;14546;47.590;19.022;2023-02-28T07:50:13;12.98;;;8.15;;
27003;SDS011;14546;47.590;19.022;2023-02-28T07:52:40;17.35;;;6.85;;
27003;SDS011;14546;47.590;19.022;2023-02-28T07:55:06;14.55;;;7.93;;
27003;SDS011;14546;47.590;19.022;2023-02-28T07:57:33;15.52;;;7.82;;
27003;SDS011;14546;47.590;19.022;2023-02-28T07:59:59;15.13;;;7.18;;
27003;SDS011;14546;47.590;19.022;2023-02-28T08:02:25;13.18;;;6.75;;
27003;SDS011;14546;47.590;19.022;2023-02-28T08:04:51;16.05;;;6.68;;
27003;SDS011;14546;47.590;19.022;2023-02-28T08:07:18;12.05;;;6.15;;
27003;SDS011;14546;47.590;19.022;2023-02-28T08:09:44;9.70;;;6.15;;
27003;SDS011;14546;47.590;19.022;2023-02-28T08:12:10;11.15;;;6.40;;
27003;SDS011;14546;47.590;19.022;2023-02-28T08:14:37;11.95;;;5.88;;
27003;SDS011;14546;47.590;19.022;2023-02-28T08:17:03;17.60;;;7.25;;
27003;SDS011;14546;47.590;19.022;2023-02-28T08:19:30;12.00;;;6.80;;
27003;SDS011;14546;47.590;19.022;2023-02-28T08:21:56;13.23;;;7.00;;
27003;SDS011;14546;47.590;19.022;2023-02-28T08:24:22;10.82;;;6.15;;
27003;SDS011;14546;47.590;19.022;2023-02-28T08:26:48;16.92;;;6.57;;
27003;SDS011;14546;47.590;19.022;2023-02-28T08:29:14;11.30;;;5.68;;
27003;SDS011;14546;47.590;19.022;2023-02-28T08:31:41;12.77;;;6.00;;
27003;SDS011;14546;47.590;19.022;2023-02-28T08:34:07;9.63;;;5.85;;
27003;SDS011;14546;47.590;19.022;2023-02-28T08:36:33;11.13;;;5.93;;
27003;SDS011;14546;47.590;19.022;2023-02-28T08:39:00;10.90;;;6.10;;
27003;SDS011;14546;47.590;19.022;2023-02-28T08:41:26;10.98;;;5.63;;
27003;SDS011;14546;47.590;19.022;2023-02-28T08:43:52;12.73;;;5.90;;
27003;SDS011;14546;47.590;19.022;2023-02-28T08:46:18;11.60;;;6.18;;
27003;SDS011;14546;47.590;19.022;2023-02-28T08:48:45;10.65;;;6.15;;
27003;SDS011;14546;47.590;19.022;2023-02-28T08:51:13;11.88;;;5.65;;
27003;SDS011;14546;47.590;19.022;2023-02-28T08:53:44;11.98;;;6.68;;
27003;SDS011;14546;47.590;19.022;2023-02-28T08:56:14;11.20;;;6.10;;
27003;SDS011;14546;47.590;19.022;2023-02-28T08:58:41;13.35;;;6.53;;
27003;SDS011;14546;47.590;19.022;2023-02-28T09:01:11;11.00;;;5.93;;
27003;SDS011;14546;47.590;19.022;2023-02-28T09:03:38;9.43;;;5.80;;
27003;SDS011;14546;47.590;19.022;2023-02-28T09:06:06;10.40;;;5.78;;
27003;SDS011;14546;47.590;19.022;2023-02-28T09:08:32;10.38;;;5.63;;
27003;SDS011;14546;47.590;19.022;2023-02-28T09:10:58;8.05;;;4.93;;
27003;SDS011;14546;47.590;19.022;2023-02-28T09:13:25;8.82;;;4.82;;
27003;SDS011;14546;47.590;19.022;2023-02-28T09:15:51;12.48;;;5.40;;
27003;SDS011;14546;47.590;19.022;2023-02-28T09:18:17;11.57;;;6.38;;
27003;SDS011;14546;47.590;19.022;2023-02-28T09:20:43;10.32;;;5.78;;
27003;SDS011;14546;47.590;19.022;2023-02-28T09:23:10;10.95;;;6.07;;
27003;SDS011;14546;47.590;19.022;2023-02-28T09:25:36;11.95;;;5.25;;
27003;SDS011;14546;47.590;19.022;2023-02-28T09:28:03;9.57;;;5.28;;
27003;SDS011;14546;47.590;19.022;2023-02-28T09:30:29;15.55;;;7.95;;
27003;SDS011;14546;47.590;19.022;2023-02-28T09:32:55;13.05;;;7.28;;
27003;SDS011;14546;47.590;19.022;2023-02-28T09:35:22;14.32;;;6.13;;
27003;SDS011;14546;47.590;19.022;2023-02-28T09:37:49;11.50;;;5.10;;
27003;SDS011;14546;47.590;19.022;2023-02-28T09:40:16;17.02;;;6.20;;
27003;SDS011;14546;47.590;19.022;2023-02-28T09:42:44;9.90;;;5.28;;
27003;SDS011;14546;47.590;19.022;2023-02-28T09:45:28;10.95;;;5.38;;
27003;SDS011;14546;47.590;19.022;2023-02-28T09:50:28;16.52;;;9.32;;
27003;SDS011;14546;47.590;19.022;2023-02-28T09:52:57;11.45;;;5.95;;
27003;SDS011;14546;47.590;19.022;2023-02-28T09:57:51;10.73;;;5.38;;
27003;SDS011;14546;47.590;19.022;2023-02-28T10:00:18;7.70;;;5.03;;
27003;SDS011;14546;47.590;19.022;2023-02-28T10:02:49;9.48;;;5.50;;
27003;SDS011;14546;47.590;19.022;2023-02-28T10:05:23;9.18;;;5.43;;
27003;SDS011;14546;47.590;19.022;2023-02-28T10:10:22;12.25;;;6.45;;
27003;SDS011;14546;47.590;19.022;2023-02-28T10:12:49;12.27;;;6.60;;
27003;SDS011;14546;47.590;19.022;2023-02-28T10:15:18;11.13;;;5.90;;
27003;SDS011;14546;47.590;19.022;2023-02-28T10:17:47;10.30;;;5.97;;
27003;SDS011;14546;47.590;19.022;2023-02-28T10:20:14;10.07;;;6.20;;
27003;SDS011;14546;47.590;19.022;2023-02-28T10:25:24;10.68;;;6.22;;
27003;SDS011;14546;47.590;19.022;2023-02-28T10:27:56;12.23;;;5.78;;
27003;SDS011;14546;47.590;19.022;2023-02-28T10:30:23;11.15;;;5.72;;
27003;SDS011;14546;47.590;19.022;2023-02-28T10:32:50;7.45;;;5.22;;
27003;SDS011;14546;47.590;19.022;2023-02-28T10:35:22;16.33;;;6.47;;
27003;SDS011;14546;47.590;19.022;2023-02-28T10:37:58;7.70;;;4.75;;
27003;SDS011;14546;47.590;19.022;2023-02-28T10:40:27;9.13;;;5.55;;
27003;SDS011;14546;47.590;19.022;2023-02-28T10:42:57;9.95;;;5.20;;
27003;SDS011;14546;47.590;19.022;2023-02-28T10:45:24;9.48;;;5.50;;
27003;SDS011;14546;47.590;19.022;2023-02-28T10:47:55;9.35;;;5.65;;
27003;SDS011;14546;47.590;19.022;2023-02-28T10:52:53;11.05;;;5.65;;
27003;SDS011;14546;47.590;19.022;2023-02-28T10:55:24;15.50;;;5.07;;
27003;SDS011;14546;47.590;19.022;2023-02-28T10:57:51;12.05;;;5.18;;
27003;SDS011;14546;47.590;19.022;2023-02-28T11:02:44;13.45;;;5.55;;
27003;SDS011;14546;47.590;19.022;2023-02-28T11:05:24;7.68;;;4.50;;
27003;SDS011;14546;47.590;19.022;2023-02-28T11:07:51;7.38;;;4.53;;
27003;SDS011;14546;47.590;19.022;2023-02-28T11:10:19;6.93;;;4.60;;
27003;SDS011;14546;47.590;19.022;2023-02-28T11:12:46;8.10;;;4.60;;
27003;SDS011;14546;47.590;19.022;2023-02-28T11:15:21;17.65;;;6.88;;
27003;SDS011;14546;47.590;19.022;2023-02-28T11:17:59;9.82;;;5.13;;
27003;SDS011;14546;47.590;19.022;2023-02-28T11:20:27;7.20;;;4.25;;
27003;SDS011;14546;47.590;19.022;2023-02-28T11:22:53;6.43;;;4.50;;
27003;SDS011;14546;47.590;19.022;2023-02-28T11:25:26;7.55;;;4.80;;
27003;SDS011;14546;47.590;19.022;2023-02-28T11:27:53;6.85;;;4.45;;
27003;SDS011;14546;47.590;19.022;2023-02-28T11:30:31;8.48;;;4.50;;
27003;SDS011;14546;47.590;19.022;2023-02-28T11:32:57;14.13;;;4.70;;
27003;SDS011;14546;47.590;19.022;2023-02-28T11:35:30;9.35;;;4.60;;
27003;SDS011;14546;47.590;19.022;2023-02-28T11:37:59;8.43;;;4.53;;
27003;SDS011;14546;47.590;19.022;2023-02-28T11:41:15;8.77;;;5.55;;
27003;SDS011;14546;47.590;19.022;2023-02-28T11:48:36;6.82;;;4.97;;
27003;SDS011;14546;47.590;19.022;2023-02-28T11:53:44;9.98;;;5.88;;
27003;SDS011;14546;47.590;19.022;2023-02-28T11:59:21;9.50;;;4.88;;
27003;SDS011;14546;47.590;19.022;2023-02-28T12:04:36;10.15;;;5.35;;
27003;SDS011;14546;47.590;19.022;2023-02-28T12:12:40;13.90;;;5.22;;
27003;SDS011;14546;47.590;19.022;2023-02-28T12:28:25;8.25;;;5.20;;
27003;SDS011;14546;47.590;19.022;2023-02-28T12:30:59;7.88;;;5.13;;
27003;SDS011;14546;47.590;19.022;2023-02-28T12:33:28;9.90;;;5.72;;
27003;SDS011;14546;47.590;19.022;2023-02-28T12:35:58;11.45;;;5.15;;
27003;SDS011;14546;47.590;19.022;2023-02-28T12:38:28;9.05;;;5.93;;
27003;SDS011;14546;47.590;19.022;2023-02-28T12:41:14;12.48;;;6.18;;
27003;SDS011;14546;47.590;19.022;2023-02-28T12:43:46;9.35;;;5.30;;
27003;SDS011;14546;47.590;19.022;2023-02-28T12:48:44;9.05;;;5.10;;
27003;SDS011;14546;47.590;19.022;2023-02-28T12:51:12;8.10;;;5.32;;
27003;SDS011;14546;47.590;19.022;2023-02-28T12:56:34;8.48;;;6.00;;
27003;SDS011;14546;47.590;19.022;2023-02-28T13:06:54;11.07;;;5.60;;
27003;SDS011;14546;47.590;19.022;2023-02-28T13:09:25;14.25;;;5.32;;
27003;SDS011;14546;47.590;19.022;2023-02-28T13:11:51;8.45;;;4.93;;
27003;SDS011;14546;47.590;19.022;2023-02-28T13:16:51;9.18;;;5.70;;
27003;SDS011;14546;47.590;19.022;2023-02-28T13:19:18;8.93;;;5.50;;
27003;SDS011;14546;47.590;19.022;2023-02-28T13:21:49;10.02;;;5.85;;
27003;SDS011;14546;47.590;19.022;2023-02-28T13:29:27;18.20;;;6.45;;
27003;SDS011;14546;47.590;19.022;2023-02-28T13:34:33;11.55;;;6.35;;
27003;SDS011;14546;47.590;19.022;2023-02-28T13:42:55;10.48;;;6.50;;
27003;SDS011;14546;47.590;19.022;2023-02-28T13:58:40;17.48;;;6.78;;
27003;SDS011;14546;47.590;19.022;2023-02-28T14:06:28;12.85;;;7.50;;
27003;SDS011;14546;47.590;19.022;2023-02-28T14:08:59;9.40;;;5.85;;
27003;SDS011;14546;47.590;19.022;2023-02-28T14:11:32;11.07;;;6.20;;
27003;SDS011;14546;47.590;19.022;2023-02-28T14:13:59;9.77;;;6.53;;
27003;SDS011;14546;47.590;19.022;2023-02-28T14:16:26;9.48;;;5.85;;
27003;SDS011;14546;47.590;19.022;2023-02-28T14:21:21;15.63;;;6.40;;
27003;SDS011;14546;47.590;19.022;2023-02-28T14:26:28;10.40;;;7.18;;
27003;SDS011;14546;47.590;19.022;2023-02-28T14:31:36;10.80;;;6.65;;
27003;SDS011;14546;47.590;19.022;2023-02-28T14:36:48;13.45;;;7.28;;
27003;SDS011;14546;47.590;19.022;2023-02-28T14:39:20;13.30;;;6.70;;
27003;SDS011;14546;47.590;19.022;2023-02-28T14:41:47;14.70;;;6.75;;
27003;SDS011;14546;47.590;19.022;2023-02-28T14:44:20;9.68;;;6.28;;
27003;SDS011;14546;47.590;19.022;2023-02-28T14:46:50;12.82;;;6.35;;
27003;SDS011;14546;47.590;19.022;2023-02-28T14:51:49;11.05;;;7.43;;
27003;SDS011;14546;47.590;19.022;2023-02-28T14:54:26;13.43;;;6.88;;
27003;SDS011;14546;47.590;19.022;2023-02-28T14:56:52;10.98;;;7.00;;
27003;SDS011;14546;47.590;19.022;2023-02-28T15:01:50;11.10;;;5.95;;
27003;SDS011;14546;47.590;19.022;2023-02-28T15:04:26;11.98;;;7.10;;
27003;SDS011;14546;47.590;19.022;2023-02-28T15:09:37;11.02;;;6.80;;
27003;SDS011;14546;47.590;19.022;2023-02-28T15:12:03;11.02;;;6.30;;
27003;SDS011;14546;47.590;19.022;2023-02-28T15:14:29;11.65;;;6.88;;
27003;SDS011;14546;47.590;19.022;2023-02-28T15:16:56;13.38;;;6.43;;
27003;SDS011;14546;47.590;19.022;2023-02-28T15:19:24;10.07;;;6.65;;
27003;SDS011;14546;47.590;19.022;2023-02-28T15:21:54;12.32;;;6.38;;
27003;SDS011;14546;47.590;19.022;2023-02-28T15:26:57;11.18;;;6.47;;
27003;SDS011;14546;47.590;19.022;2023-02-28T15:29:24;12.63;;;6.65;;
27003;SDS011;14546;47.590;19.022;2023-02-28T15:31:55;12.65;;;6.40;;
27003;SDS011;14546;47.590;19.022;2023-02-28T15:34:25;13.98;;;6.90;;
27003;SDS011;14546;47.590;19.022;2023-02-28T15:36:52;15.30;;;6.57;;
27003;SDS011;14546;47.590;19.022;2023-02-28T15:39:22;10.98;;;6.93;;
27003;SDS011;14546;47.590;19.022;2023-02-28T15:41:49;14.27;;;6.82;;
27003;SDS011;14546;47.590;19.022;2023-02-28T15:46:54;13.68;;;6.38;;
27003;SDS011;14546;47.590;19.022;2023-02-28T15:49:21;11.15;;;6.80;;
27003;SDS011;14546;47.590;19.022;2023-02-28T15:51:48;9.82;;;5.68;;
27003;SDS011;14546;47.590;19.022;2023-02-28T15:54:17;9.98;;;6.32;;
27003;SDS011;14546;47.590;19.022;2023-02-28T15:56:49;10.77;;;6.50;;
27003;SDS011;14546;47.590;19.022;2023-02-28T15:59:20;10.75;;;6.70;;
27003;SDS011;14546;47.590;19.022;2023-02-28T16:01:47;11.75;;;6.38;;
27003;SDS011;14546;47.590;19.022;2023-02-28T16:04:27;10.50;;;6.47;;
27003;SDS011;14546;47.590;19.022;2023-02-28T16:09:25;14.02;;;6.65;;
27003;SDS011;14546;47.590;19.022;2023-02-28T16:11:53;13.05;;;6.47;;
27003;SDS011;14546;47.590;19.022;2023-02-28T16:14:23;11.32;;;6.43;;
27003;SDS011;14546;47.590;19.022;2023-02-28T16:16:53;15.48;;;6.20;;
27003;SDS011;14546;47.590;19.022;2023-02-28T16:19:19;11.90;;;6.68;;
27003;SDS011;14546;47.590;19.022;2023-02-28T16:21:46;11.40;;;6.72;;
27003;SDS011;14546;47.590;19.022;2023-02-28T16:24:14;15.80;;;7.95;;
27003;SDS011;14546;47.590;19.022;2023-02-28T16:26:41;13.00;;;8.07;;
27003;SDS011;14546;47.590;19.022;2023-02-28T16:29:09;18.02;;;7.97;;
27003;SDS011;14546;47.590;19.022;2023-02-28T16:31:35;15.23;;;8.80;;
27003;SDS011;14546;47.590;19.022;2023-02-28T16:34:02;16.23;;;8.38;;
27003;SDS011;14546;47.590;19.022;2023-02-28T16:36:29;17.92;;;8.82;;
27003;SDS011;14546;47.590;19.022;2023-02-28T16:38:55;17.38;;;8.65;;
27003;SDS011;14546;47.590;19.022;2023-02-28T16:41:22;16.08;;;8.23;;
27003;SDS011;14546;47.590;19.022;2023-02-28T16:43:51;17.73;;;8.85;;
27003;SDS011;14546;47.590;19.022;2023-02-28T16:46:17;16.40;;;9.18;;
27003;SDS011;14546;47.590;19.022;2023-02-28T16:48:44;15.90;;;9.20;;
27003;SDS011;14546;47.590;19.022;2023-02-28T16:51:11;16.45;;;9.23;;
27003;SDS011;14546;47.590;19.022;2023-02-28T16:53:38;17.52;;;8.50;;
27003;SDS011;14546;47.590;19.022;2023-02-28T16:56:04;12.15;;;8.68;;
27003;SDS011;14546;47.590;19.022;2023-02-28T16:58:32;16.73;;;8.63;;
27003;SDS011;14546;47.590;19.022;2023-02-28T17:01:01;13.23;;;8.35;;
27003;SDS011;14546;47.590;19.022;2023-02-28T17:03:27;15.55;;;8.82;;
27003;SDS011;14546;47.590;19.022;2023-02-28T17:05:54;17.42;;;9.90;;
27003;SDS011;14546;47.590;19.022;2023-02-28T17:08:20;14.77;;;8.68;;